VOZ887 YMML-YSSY
Flight info
| Callsign | VOZ887 |
|---|---|
| Flight time | 1h 15m |
| Altitude | 35000 |
| Route | ML H129 DOSEL Y59 RIVET |
| Aircraft | B738/M-SDE2E3FGHIRWXY/LB1 |
Departure
| Time | 2026-05-01 09:24 |
|---|---|
| Airport | Melbourne Airport (YMML) |
Arrival
| Time | 2026-05-01 10:39 |
|---|---|
| Airport | Sydney Kingsford Smith International Airport (YSSY) |
| Time | Latitude | Longitude | Altitude | Speed | Heading |
|---|---|---|---|---|---|
| 2026-05-01 08:52 | -37.67126 | 144.84636 | 389 ft | 0 kts | 352° |
| 2026-05-01 09:09 | -37.67139 | 144.84639 | 388 ft | 3 kts | 352° |
| 2026-05-01 09:09 | -37.67159 | 144.84642 | 387 ft | 3 kts | 348° |
| 2026-05-01 09:09 | -37.67177 | 144.84652 | 387 ft | 3 kts | 314° |
| 2026-05-01 09:09 | -37.67188 | 144.84673 | 386 ft | 3 kts | 282° |
| 2026-05-01 09:10 | -37.67189 | 144.84685 | 387 ft | 0 kts | 265° |
| 2026-05-01 09:14 | -37.67190 | 144.84678 | 386 ft | 2 kts | 261° |
| 2026-05-01 09:15 | -37.67196 | 144.84640 | 386 ft | 6 kts | 260° |
| 2026-05-01 09:15 | -37.67204 | 144.84574 | 385 ft | 8 kts | 261° |
| 2026-05-01 09:15 | -37.67211 | 144.84504 | 384 ft | 7 kts | 277° |
| 2026-05-01 09:15 | -37.67203 | 144.84466 | 385 ft | 3 kts | 287° |
| 2026-05-01 09:16 | -37.67198 | 144.84411 | 384 ft | 11 kts | 265° |
| 2026-05-01 09:16 | -37.67213 | 144.84312 | 382 ft | 9 kts | 240° |
| 2026-05-01 09:16 | -37.67247 | 144.84287 | 382 ft | 6 kts | 195° |
| 2026-05-01 09:17 | -37.67432 | 144.84314 | 378 ft | 15 kts | 170° |
| 2026-05-01 09:17 | -37.67545 | 144.84334 | 376 ft | 17 kts | 172° |
| 2026-05-01 09:17 | -37.67799 | 144.84357 | 369 ft | 18 kts | 210° |
| 2026-05-01 09:18 | -37.67858 | 144.84237 | 362 ft | 16 kts | 262° |
| 2026-05-01 09:18 | -37.67872 | 144.84128 | 363 ft | 0 kts | 258° |
| 2026-05-01 09:21 | -37.67872 | 144.84127 | 363 ft | 1 kts | 257° |
| 2026-05-01 09:21 | -37.67877 | 144.84097 | 358 ft | 7 kts | 261° |
| 2026-05-01 09:21 | -37.67858 | 144.83966 | 364 ft | 5 kts | 336° |
| 2026-05-01 09:22 | -37.67840 | 144.83962 | 362 ft | 0 kts | 351° |
| 2026-05-01 09:23 | -37.67174 | 144.83838 | 382 ft | 122 kts | 352° |
| 2026-05-01 09:24 | -37.64842 | 144.83419 | 1156 ft | 188 kts | 352° |
| 2026-05-01 09:24 | -37.63504 | 144.83025 | 1653 ft | 203 kts | 341° |
| 2026-05-01 09:24 | -37.60423 | 144.81858 | 1984 ft | 244 kts | 356° |
| 2026-05-01 09:25 | -37.57218 | 144.82575 | 2027 ft | 250 kts | 33° |
| 2026-05-01 09:25 | -37.54138 | 144.85028 | 2560 ft | 260 kts | 29° |
| 2026-05-01 09:26 | -37.52580 | 144.86121 | 3059 ft | 261 kts | 27° |
| 2026-05-01 09:26 | -37.49132 | 144.88329 | 4093 ft | 291 kts | 24° |
| 2026-05-01 09:26 | -37.47272 | 144.89468 | 4596 ft | 305 kts | 24° |
| 2026-05-01 09:27 | -37.43451 | 144.92196 | 5598 ft | 332 kts | 41° |
| 2026-05-01 09:27 | -37.41950 | 144.94490 | 6150 ft | 342 kts | 51° |
| 2026-05-01 09:27 | -37.40578 | 144.96923 | 6764 ft | 345 kts | 52° |
| 2026-05-01 09:28 | -37.39170 | 144.99469 | 7376 ft | 350 kts | 52° |
| 2026-05-01 09:28 | -37.37769 | 145.02000 | 8100 ft | 352 kts | 52° |
| 2026-05-01 09:28 | -37.36367 | 145.04519 | 8837 ft | 353 kts | 52° |
| 2026-05-01 09:28 | -37.34955 | 145.07039 | 9612 ft | 354 kts | 52° |
| 2026-05-01 09:29 | -37.32108 | 145.12085 | 11071 ft | 355 kts | 52° |
| 2026-05-01 09:29 | -37.30669 | 145.14624 | 11794 ft | 354 kts | 51° |
| 2026-05-01 09:30 | -37.27802 | 145.19676 | 13308 ft | 353 kts | 51° |
| 2026-05-01 09:30 | -37.26394 | 145.22154 | 14061 ft | 352 kts | 52° |
| 2026-05-01 09:30 | -37.23557 | 145.27150 | 15468 ft | 349 kts | 51° |
| 2026-05-01 09:31 | -37.22151 | 145.29622 | 16192 ft | 347 kts | 51° |
| 2026-05-01 09:31 | -37.20744 | 145.32095 | 16937 ft | 345 kts | 51° |
| 2026-05-01 09:31 | -37.17978 | 145.36947 | 18471 ft | 339 kts | 51° |
| 2026-05-01 09:32 | -37.16623 | 145.39317 | 19151 ft | 335 kts | 51° |
| 2026-05-01 09:32 | -37.13941 | 145.43992 | 20546 ft | 325 kts | 50° |
| 2026-05-01 09:32 | -37.12622 | 145.46285 | 21191 ft | 322 kts | 50° |
| 2026-05-01 09:33 | -37.11327 | 145.48535 | 21804 ft | 320 kts | 50° |
| 2026-05-01 09:33 | -37.10028 | 145.50793 | 22440 ft | 316 kts | 50° |
| 2026-05-01 09:33 | -37.07475 | 145.55233 | 23740 ft | 307 kts | 50° |
| 2026-05-01 09:34 | -37.06250 | 145.57364 | 24284 ft | 302 kts | 49° |
| 2026-05-01 09:34 | -37.05018 | 145.59504 | 24717 ft | 300 kts | 49° |
| 2026-05-01 09:34 | -37.02573 | 145.63745 | 25418 ft | 301 kts | 50° |
| 2026-05-01 09:35 | -37.01336 | 145.65887 | 25768 ft | 301 kts | 50° |
| 2026-05-01 09:35 | -36.98821 | 145.70235 | 26037 ft | 320 kts | 50° |
| 2026-05-01 09:35 | -36.97503 | 145.72512 | 26137 ft | 331 kts | 50° |
| 2026-05-01 09:36 | -36.96116 | 145.74906 | 26243 ft | 342 kts | 50° |
| 2026-05-01 09:36 | -36.94711 | 145.77331 | 26332 ft | 353 kts | 50° |
| 2026-05-01 09:36 | -36.93242 | 145.79868 | 26424 ft | 364 kts | 50° |
| 2026-05-01 09:36 | -36.91749 | 145.82444 | 26521 ft | 374 kts | 51° |
| 2026-05-01 09:37 | -36.90198 | 145.85119 | 26609 ft | 385 kts | 51° |
| 2026-05-01 09:37 | -36.87010 | 145.90622 | 27357 ft | 387 kts | 51° |
| 2026-05-01 09:37 | -36.85427 | 145.93351 | 27826 ft | 385 kts | 51° |
| 2026-05-01 09:38 | -36.82302 | 145.98728 | 28838 ft | 380 kts | 51° |
| 2026-05-01 09:38 | -36.80766 | 146.01365 | 29350 ft | 376 kts | 51° |
| 2026-05-01 09:38 | -36.79226 | 146.04006 | 29875 ft | 372 kts | 51° |
| 2026-05-01 09:39 | -36.76205 | 146.09184 | 30842 ft | 362 kts | 51° |
| 2026-05-01 09:39 | -36.74748 | 146.11678 | 31293 ft | 356 kts | 50° |
| 2026-05-01 09:39 | -36.73287 | 146.14177 | 31592 ft | 357 kts | 50° |
| 2026-05-01 09:40 | -36.71790 | 146.16726 | 31485 ft | 369 kts | 50° |
| 2026-05-01 09:40 | -36.68708 | 146.21977 | 31601 ft | 383 kts | 50° |
| 2026-05-01 09:41 | -36.65516 | 146.27413 | 31734 ft | 397 kts | 51° |
| 2026-05-01 09:41 | -36.62198 | 146.33057 | 31916 ft | 409 kts | 50° |
| 2026-05-01 09:41 | -36.60505 | 146.35917 | 32079 ft | 411 kts | 51° |
| 2026-05-01 09:42 | -36.58814 | 146.38784 | 32259 ft | 414 kts | 49° |
| 2026-05-01 09:42 | -36.56767 | 146.41280 | 32417 ft | 409 kts | 30° |
| 2026-05-01 09:42 | -36.51485 | 146.43254 | 32964 ft | 392 kts | 356° |
| 2026-05-01 09:43 | -36.46062 | 146.42998 | 33465 ft | 391 kts | 352° |
| 2026-05-01 09:43 | -36.43370 | 146.42787 | 33718 ft | 390 kts | 352° |
| 2026-05-01 09:43 | -36.40618 | 146.42563 | 33983 ft | 390 kts | 352° |
| 2026-05-01 09:44 | -36.35218 | 146.42121 | 34473 ft | 389 kts | 352° |
| 2026-05-01 09:44 | -36.32937 | 146.41935 | 34701 ft | 386 kts | 352° |
| 2026-05-01 09:44 | -36.31157 | 146.41790 | 34942 ft | 383 kts | 352° |
| 2026-05-01 09:45 | -36.29450 | 146.41651 | 35158 ft | 380 kts | 352° |
| 2026-05-01 09:45 | -36.23190 | 146.41126 | 35286 ft | 389 kts | 352° |
| 2026-05-01 09:45 | -36.21382 | 146.40969 | 35272 ft | 393 kts | 352° |
| 2026-05-01 09:46 | -36.14919 | 146.40394 | 35285 ft | 405 kts | 352° |
| 2026-05-01 09:46 | -36.14239 | 146.40339 | 35283 ft | 407 kts | 354° |
| 2026-05-01 09:47 | -36.11778 | 146.40579 | 35255 ft | 418 kts | 10° |
| 2026-05-01 09:47 | -36.09047 | 146.41845 | 35272 ft | 430 kts | 26° |
| 2026-05-01 09:47 | -36.05708 | 146.45275 | 35276 ft | 446 kts | 49° |
| 2026-05-01 09:48 | -36.04106 | 146.48633 | 35274 ft | 457 kts | 67° |
| 2026-05-01 09:48 | -36.03253 | 146.54178 | 35285 ft | 467 kts | 90° |
| 2026-05-01 09:49 | -36.03650 | 146.58184 | 35281 ft | 472 kts | 105° |
| 2026-05-01 09:49 | -36.04650 | 146.62105 | 35293 ft | 476 kts | 110° |
| 2026-05-01 09:49 | -36.07089 | 146.69801 | 35292 ft | 485 kts | 112° |
| 2026-05-01 09:50 | -36.08101 | 146.73733 | 35275 ft | 490 kts | 99° |
| 2026-05-01 09:50 | -36.08367 | 146.78035 | 35301 ft | 492 kts | 85° |
| 2026-05-01 09:50 | -36.08140 | 146.80818 | 35294 ft | 493 kts | 78° |
| 2026-05-01 09:51 | -36.08002 | 146.81722 | 35287 ft | 493 kts | 76° |
| 2026-05-01 09:51 | -36.05821 | 146.89628 | 35290 ft | 495 kts | 66° |
| 2026-05-01 09:52 | -36.03602 | 146.96859 | 35287 ft | 497 kts | 67° |
| 2026-05-01 09:52 | -36.01272 | 147.04695 | 35287 ft | 491 kts | 68° |
| 2026-05-01 09:53 | -35.99307 | 147.11406 | 35292 ft | 488 kts | 68° |
| 2026-05-01 09:54 | -35.97637 | 147.17116 | 35306 ft | 487 kts | 68° |
| 2026-05-01 09:54 | -35.95328 | 147.24986 | 35301 ft | 486 kts | 68° |
| 2026-05-01 09:55 | -35.94562 | 147.27588 | 35309 ft | 486 kts | 68° |
| 2026-05-01 09:55 | -35.92466 | 147.34694 | 35312 ft | 487 kts | 68° |
| 2026-05-01 09:56 | -35.90140 | 147.42558 | 35321 ft | 488 kts | 68° |
| 2026-05-01 09:56 | -35.87935 | 147.49993 | 35324 ft | 490 kts | 68° |
| 2026-05-01 09:57 | -35.85575 | 147.57934 | 35324 ft | 492 kts | 68° |
| 2026-05-01 09:57 | -35.84788 | 147.60564 | 35333 ft | 492 kts | 67° |
| 2026-05-01 09:58 | -35.81841 | 147.67396 | 35330 ft | 488 kts | 51° |
| 2026-05-01 09:58 | -35.77709 | 147.74034 | 35338 ft | 489 kts | 49° |
| 2026-05-01 09:59 | -35.73357 | 147.80954 | 35335 ft | 490 kts | 50° |
| 2026-05-01 09:59 | -35.69348 | 147.87431 | 35339 ft | 490 kts | 50° |
| 2026-05-01 10:00 | -35.65210 | 147.94160 | 35340 ft | 489 kts | 50° |
| 2026-05-01 10:00 | -35.61122 | 148.00799 | 35345 ft | 489 kts | 50° |
| 2026-05-01 10:01 | -35.57135 | 148.07256 | 35349 ft | 489 kts | 50° |
| 2026-05-01 10:01 | -35.53008 | 148.13925 | 35350 ft | 488 kts | 50° |
| 2026-05-01 10:02 | -35.50361 | 148.18197 | 35355 ft | 487 kts | 50° |
| 2026-05-01 10:02 | -35.46262 | 148.24814 | 35355 ft | 487 kts | 50° |
| 2026-05-01 10:03 | -35.42125 | 148.31454 | 35372 ft | 487 kts | 50° |
| 2026-05-01 10:03 | -35.38003 | 148.38038 | 35362 ft | 487 kts | 50° |
| 2026-05-01 10:04 | -35.33897 | 148.44584 | 35368 ft | 486 kts | 50° |
| 2026-05-01 10:04 | -35.29786 | 148.51143 | 35369 ft | 485 kts | 50° |
| 2026-05-01 10:05 | -35.25707 | 148.57644 | 35370 ft | 485 kts | 50° |
| 2026-05-01 10:05 | -35.21586 | 148.64198 | 35365 ft | 484 kts | 50° |
| 2026-05-01 10:06 | -35.18165 | 148.69642 | 35366 ft | 483 kts | 50° |
| 2026-05-01 10:06 | -35.16129 | 148.72876 | 35040 ft | 489 kts | 50° |
| 2026-05-01 10:06 | -35.14046 | 148.76175 | 34562 ft | 490 kts | 50° |
| 2026-05-01 10:07 | -35.11955 | 148.79484 | 34051 ft | 487 kts | 50° |
| 2026-05-01 10:07 | -35.09901 | 148.82731 | 33530 ft | 484 kts | 50° |
| 2026-05-01 10:07 | -35.07828 | 148.86004 | 33017 ft | 485 kts | 50° |
| 2026-05-01 10:07 | -35.05755 | 148.89273 | 32515 ft | 485 kts | 50° |
| 2026-05-01 10:08 | -35.01621 | 148.95784 | 31530 ft | 485 kts | 50° |
| 2026-05-01 10:08 | -34.99540 | 148.99057 | 31048 ft | 485 kts | 50° |
| 2026-05-01 10:08 | -34.97490 | 149.02280 | 30582 ft | 486 kts | 51° |
| 2026-05-01 10:09 | -34.95404 | 149.05556 | 30046 ft | 486 kts | 50° |
| 2026-05-01 10:09 | -34.93339 | 149.08795 | 29520 ft | 487 kts | 50° |
| 2026-05-01 10:09 | -34.91257 | 149.12058 | 28981 ft | 487 kts | 50° |
| 2026-05-01 10:09 | -34.89175 | 149.15320 | 28450 ft | 487 kts | 50° |
| 2026-05-01 10:10 | -34.87106 | 149.18542 | 27950 ft | 486 kts | 50° |
| 2026-05-01 10:10 | -34.85010 | 149.21806 | 27432 ft | 486 kts | 50° |
| 2026-05-01 10:10 | -34.80879 | 149.28263 | 26406 ft | 486 kts | 50° |
| 2026-05-01 10:11 | -34.78776 | 149.31550 | 25792 ft | 487 kts | 50° |
| 2026-05-01 10:11 | -34.76677 | 149.34822 | 25201 ft | 486 kts | 50° |
| 2026-05-01 10:11 | -34.74905 | 149.37584 | 24698 ft | 479 kts | 51° |
| 2026-05-01 10:11 | -34.73042 | 149.40921 | 24115 ft | 473 kts | 59° |
| 2026-05-01 10:12 | -34.71494 | 149.44451 | 23486 ft | 466 kts | 61° |
| 2026-05-01 10:12 | -34.70030 | 149.47890 | 22831 ft | 460 kts | 61° |
| 2026-05-01 10:12 | -34.67116 | 149.54714 | 21556 ft | 450 kts | 61° |
| 2026-05-01 10:13 | -34.65661 | 149.58077 | 20940 ft | 446 kts | 61° |
| 2026-05-01 10:13 | -34.64205 | 149.61420 | 20343 ft | 442 kts | 61° |
| 2026-05-01 10:13 | -34.62777 | 149.64683 | 19744 ft | 438 kts | 60° |
| 2026-05-01 10:14 | -34.59927 | 149.71178 | 18580 ft | 431 kts | 61° |
| 2026-05-01 10:14 | -34.58535 | 149.74349 | 17934 ft | 428 kts | 61° |
| 2026-05-01 10:14 | -34.57128 | 149.77552 | 17289 ft | 425 kts | 61° |
| 2026-05-01 10:14 | -34.55739 | 149.80711 | 16628 ft | 422 kts | 61° |
| 2026-05-01 10:15 | -34.54354 | 149.83860 | 15888 ft | 422 kts | 61° |
| 2026-05-01 10:15 | -34.52986 | 149.86970 | 15187 ft | 420 kts | 60° |
| 2026-05-01 10:15 | -34.51619 | 149.90073 | 14874 ft | 408 kts | 60° |
| 2026-05-01 10:15 | -34.50295 | 149.93071 | 14243 ft | 405 kts | 60° |
| 2026-05-01 10:16 | -34.48964 | 149.96080 | 13478 ft | 404 kts | 60° |
| 2026-05-01 10:16 | -34.47631 | 149.99086 | 12719 ft | 403 kts | 60° |
| 2026-05-01 10:16 | -34.45032 | 150.04949 | 11849 ft | 386 kts | 60° |
| 2026-05-01 10:17 | -34.43775 | 150.07786 | 11718 ft | 371 kts | 60° |
| 2026-05-01 10:17 | -34.41340 | 150.13275 | 10784 ft | 363 kts | 60° |
| 2026-05-01 10:17 | -34.40181 | 150.15887 | 10628 ft | 350 kts | 60° |
| 2026-05-01 10:18 | -34.37883 | 150.21057 | 10338 ft | 347 kts | 60° |
| 2026-05-01 10:18 | -34.36730 | 150.23647 | 10214 ft | 347 kts | 60° |
| 2026-05-01 10:18 | -34.35602 | 150.26179 | 10090 ft | 344 kts | 60° |
| 2026-05-01 10:19 | -34.34460 | 150.28739 | 10040 ft | 345 kts | 60° |
| 2026-05-01 10:19 | -34.33325 | 150.31286 | 10037 ft | 342 kts | 60° |
| 2026-05-01 10:19 | -34.32195 | 150.33820 | 10021 ft | 342 kts | 60° |
| 2026-05-01 10:20 | -34.29948 | 150.38855 | 10019 ft | 332 kts | 60° |
| 2026-05-01 10:20 | -34.28883 | 150.41235 | 10000 ft | 317 kts | 60° |
| 2026-05-01 10:20 | -34.27846 | 150.43552 | 10002 ft | 302 kts | 60° |
| 2026-05-01 10:20 | -34.26863 | 150.45748 | 9692 ft | 303 kts | 60° |
| 2026-05-01 10:21 | -34.25840 | 150.48029 | 9178 ft | 307 kts | 60° |
| 2026-05-01 10:21 | -34.23786 | 150.52612 | 8218 ft | 311 kts | 60° |
| 2026-05-01 10:21 | -34.22765 | 150.54891 | 8069 ft | 302 kts | 60° |
| 2026-05-01 10:22 | -34.20851 | 150.59168 | 8015 ft | 283 kts | 60° |
| 2026-05-01 10:22 | -34.18976 | 150.63338 | 8018 ft | 284 kts | 60° |
| 2026-05-01 10:23 | -34.18037 | 150.65424 | 8014 ft | 284 kts | 60° |
| 2026-05-01 10:23 | -34.16078 | 150.69774 | 6949 ft | 303 kts | 60° |
| 2026-05-01 10:23 | -34.15054 | 150.72049 | 6354 ft | 309 kts | 60° |
| 2026-05-01 10:24 | -34.13065 | 150.76472 | 6033 ft | 290 kts | 60° |
| 2026-05-01 10:24 | -34.11202 | 150.80606 | 6008 ft | 273 kts | 60° |
| 2026-05-01 10:25 | -34.09381 | 150.84641 | 6013 ft | 275 kts | 61° |
| 2026-05-01 10:25 | -34.07551 | 150.88720 | 6012 ft | 276 kts | 61° |
| 2026-05-01 10:26 | -34.06773 | 150.90449 | 6012 ft | 277 kts | 61° |
| 2026-05-01 10:26 | -34.05874 | 150.92444 | 6006 ft | 277 kts | 61° |
| 2026-05-01 10:26 | -34.04015 | 150.96563 | 6003 ft | 276 kts | 61° |
| 2026-05-01 10:27 | -34.03390 | 151.00976 | 6005 ft | 278 kts | 105° |
| 2026-05-01 10:27 | -34.05605 | 151.04804 | 6011 ft | 282 kts | 132° |
| 2026-05-01 10:28 | -34.06977 | 151.06503 | 6009 ft | 283 kts | 133° |
| 2026-05-01 10:28 | -34.10515 | 151.08471 | 6011 ft | 288 kts | 167° |
| 2026-05-01 10:28 | -34.12467 | 151.08940 | 5993 ft | 281 kts | 167° |
| 2026-05-01 10:29 | -34.16110 | 151.09837 | 5980 ft | 255 kts | 166° |
| 2026-05-01 10:29 | -34.17821 | 151.10274 | 5773 ft | 251 kts | 166° |
| 2026-05-01 10:30 | -34.21395 | 151.11232 | 4501 ft | 269 kts | 165° |
| 2026-05-01 10:30 | -34.25060 | 151.12379 | 3254 ft | 277 kts | 150° |
| 2026-05-01 10:31 | -34.27171 | 151.15854 | 2205 ft | 264 kts | 94° |
| 2026-05-01 10:31 | -34.27038 | 151.19968 | 2270 ft | 214 kts | 83° |
| 2026-05-01 10:32 | -34.25770 | 151.22381 | 2916 ft | 181 kts | 16° |
| 2026-05-01 10:32 | -34.24548 | 151.22669 | 2996 ft | 180 kts | 21° |
| 2026-05-01 10:32 | -34.22268 | 151.23821 | 3016 ft | 178 kts | 23° |
| 2026-05-01 10:33 | -34.19897 | 151.24259 | 3057 ft | 177 kts | 347° |
| 2026-05-01 10:33 | -34.17559 | 151.23616 | 2984 ft | 165 kts | 349° |
| 2026-05-01 10:34 | -34.16448 | 151.23282 | 3000 ft | 168 kts | 350° |
| 2026-05-01 10:34 | -34.15203 | 151.22941 | 3023 ft | 189 kts | 351° |
| 2026-05-01 10:34 | -34.13945 | 151.22608 | 2998 ft | 184 kts | 351° |
| 2026-05-01 10:35 | -34.11478 | 151.21967 | 3006 ft | 182 kts | 351° |
| 2026-05-01 10:35 | -34.10238 | 151.21646 | 2795 ft | 181 kts | 351° |
| 2026-05-01 10:35 | -34.09040 | 151.21334 | 2553 ft | 172 kts | 351° |
| 2026-05-01 10:35 | -34.07885 | 151.21035 | 2338 ft | 165 kts | 351° |
| 2026-05-01 10:36 | -34.05781 | 151.20488 | 1929 ft | 146 kts | 352° |
| 2026-05-01 10:36 | -34.05127 | 151.20319 | 1790 ft | 142 kts | 352° |
| 2026-05-01 10:36 | -34.04159 | 151.20070 | 1618 ft | 145 kts | 351° |
| 2026-05-01 10:37 | -34.03160 | 151.19800 | 1391 ft | 147 kts | 341° |
| 2026-05-01 10:37 | -34.01162 | 151.19211 | 962 ft | 149 kts | 353° |
| 2026-05-01 10:37 | -34.00337 | 151.19015 | 756 ft | 145 kts | 346° |
| 2026-05-01 10:38 | -33.99753 | 151.18854 | 598 ft | 144 kts | 352° |
| 2026-05-01 10:38 | -33.98912 | 151.18717 | 391 ft | 142 kts | 352° |
| 2026-05-01 10:38 | -33.97935 | 151.18443 | 296 ft | 149 kts | 349° |
| 2026-05-01 10:38 | -33.96912 | 151.18189 | 150 ft | 148 kts | 350° |
| 2026-05-01 10:39 | -33.95925 | 151.17937 | 24 ft | 137 kts | 349° |
| 2026-05-01 10:39 | -33.95092 | 151.17714 | 19 ft | 112 kts | 348° |
| 2026-05-01 10:39 | -33.94413 | 151.17544 | 25 ft | 86 kts | 347° |
| 2026-05-01 10:39 | -33.93935 | 151.17418 | 17 ft | 43 kts | 347° |
| 2026-05-01 10:40 | -33.93691 | 151.17383 | 16 ft | 26 kts | 33° |
| 2026-05-01 10:40 | -33.93652 | 151.17465 | 14 ft | 0 kts | 72° |
| 2026-05-01 10:41 | -33.93645 | 151.17498 | 14 ft | 5 kts | 78° |
| 2026-05-01 10:42 | -33.93641 | 151.17538 | 16 ft | 5 kts | 89° |
| 2026-05-01 10:42 | -33.93647 | 151.17578 | 20 ft | 5 kts | 101° |
| 2026-05-01 10:42 | -33.93653 | 151.17618 | 30 ft | 5 kts | 98° |
| 2026-05-01 10:42 | -33.93655 | 151.17659 | 29 ft | 6 kts | 96° |
| 2026-05-01 10:43 | -33.93665 | 151.17748 | 29 ft | 13 kts | 98° |
| 2026-05-01 10:43 | -33.93654 | 151.17815 | 30 ft | 4 kts | 42° |
| 2026-05-01 10:43 | -33.93625 | 151.17823 | 30 ft | 6 kts | 2° |
| 2026-05-01 10:43 | -33.93569 | 151.17827 | 30 ft | 8 kts | 8° |
| 2026-05-01 10:44 | -33.93512 | 151.17834 | 30 ft | 8 kts | 347° |
| 2026-05-01 10:44 | -33.93499 | 151.17827 | 30 ft | 0 kts | 340° |
| 2026-05-01 10:44 | -33.93497 | 151.17821 | 30 ft | 2 kts | 304° |
| 2026-05-01 10:45 | -33.93492 | 151.17815 | 28 ft | 0 kts | 314° |
| 2026-05-01 10:45 | -33.93490 | 151.17810 | 28 ft | 0 kts | 310° |
| 2026-05-01 10:45 | -33.93490 | 151.17805 | 29 ft | 1 kts | 278° |
| 2026-05-01 10:46 | -33.93487 | 151.17784 | 29 ft | 0 kts | 278° |